Time;durP1;ratioP1;P1;durP2;ratioP2;P2;SDS_P1;SDS_P2;PMS_P1;PMS_P2;Temp;Humidity;BMP_temperature;BMP_pressure;BME280_temperature;BME280_humidity;BME280_pressure;Samples;Min_cycle;Max_cycle;Signal;HPM_P1;HPM_P2
2022/02/01 00:02:31;;;;;;;34.03;13.93;;;;;;;;;;4934663;29;20504;-62
2022/02/01 00:13:17;;;;;;;29.53;12.77;;;;;;;;;;4915672;29;20131;-61
2022/02/01 00:37:16;;;;;;;35.53;17.20;;;;;;;;;;4952623;29;20031;-62
2022/02/01 00:39:45;;;;;;;35.20;16.10;;;;;;;;;;4937309;29;20051;-61
2022/02/01 00:42:11;;;;;;;28.53;15.87;;;;;;;;;;4952954;29;20040;-64
2022/02/01 00:44:36;;;;;;;31.27;15.00;;;;;;;;;;4948039;29;20099;-62
2022/02/01 00:47:02;;;;;;;24.50;12.97;;;;;;;;;;4955166;28;20129;-63
2022/02/01 00:49:29;;;;;;;25.73;12.37;;;;;;;;;;4953846;28;20050;-61
2022/02/01 00:51:54;;;;;;;29.67;13.73;;;;;;;;;;4951716;28;20032;-62
2022/02/01 00:54:19;;;;;;;25.70;12.60;;;;;;;;;;4955019;28;20090;-62
2022/02/01 00:56:44;;;;;;;30.20;14.03;;;;;;;;;;4954234;29;20039;-62
2022/02/01 00:59:10;;;;;;;32.33;13.30;;;;;;;;;;4955992;28;20480;-62
2022/02/01 01:01:35;;;;;;;30.27;12.10;;;;;;;;;;4953818;28;20019;-62
2022/02/01 01:04:00;;;;;;;30.07;13.17;;;;;;;;;;4954826;28;20031;-62
2022/02/01 01:06:26;;;;;;;28.07;11.87;;;;;;;;;;4953899;29;20499;-61
2022/02/01 01:08:51;;;;;;;29.03;12.37;;;;;;;;;;4950983;28;20248;-63
2022/02/01 01:11:16;;;;;;;28.57;11.27;;;;;;;;;;4948562;29;20388;-63
2022/02/01 01:43:41;;;;;;;18.67;9.47;;;;;;;;;;4953919;29;20039;-62
2022/02/01 01:54:15;;;;;;;15.40;8.70;;;;;;;;;;4953632;29;20109;-61
2022/02/01 01:56:41;;;;;;;20.87;8.77;;;;;;;;;;4953425;28;20406;-63
2022/02/01 01:59:07;;;;;;;16.10;7.33;;;;;;;;;;4953376;28;20034;-61
2022/02/01 02:01:32;;;;;;;16.50;7.47;;;;;;;;;;4956767;28;20403;-63
2022/02/01 02:03:58;;;;;;;14.10;7.30;;;;;;;;;;4952036;28;20035;-62
2022/02/01 02:06:23;;;;;;;13.93;6.57;;;;;;;;;;4953259;29;20122;-63
2022/02/01 02:08:52;;;;;;;14.00;7.13;;;;;;;;;;4953404;28;20388;-63
2022/02/01 02:11:48;;;;;;;11.57;7.27;;;;;;;;;;4954278;28;20200;-62
2022/02/01 02:14:21;;;;;;;12.87;6.77;;;;;;;;;;4952668;29;20125;-62
2022/02/01 02:16:56;;;;;;;13.13;7.20;;;;;;;;;;4953315;28;20023;-62
2022/02/01 02:19:23;;;;;;;10.47;6.40;;;;;;;;;;4953120;28;20043;-62
2022/02/01 02:21:52;;;;;;;12.60;7.53;;;;;;;;;;4951567;28;20548;-63
2022/02/01 02:24:18;;;;;;;17.33;8.67;;;;;;;;;;4957526;28;20407;-63
2022/02/01 02:26:44;;;;;;;16.60;9.37;;;;;;;;;;4951537;28;20110;-62
2022/02/01 02:29:09;;;;;;;18.90;10.40;;;;;;;;;;4953699;29;20023;-62
2022/02/01 02:31:38;;;;;;;15.67;9.70;;;;;;;;;;4953393;28;20051;-64
2022/02/01 02:34:08;;;;;;;27.00;11.07;;;;;;;;;;4950828;28;20043;-61
2022/02/01 02:36:37;;;;;;;23.37;13.03;;;;;;;;;;4952874;28;20039;-61
2022/02/01 02:39:12;;;;;;;26.90;12.70;;;;;;;;;;4953092;28;20046;-63
2022/02/01 02:41:49;;;;;;;;;;;;;;;;;;4953360;28;20127;-62
2022/02/01 02:46:59;;;;;;;27.73;14.93;;;;;;;;;;4953358;29;20078;-61
2022/02/01 02:49:24;;;;;;;31.63;14.27;;;;;;;;;;4953908;28;20027;-63
2022/02/01 02:51:50;;;;;;;29.53;14.53;;;;;;;;;;4953271;28;20042;-64
2022/02/01 02:54:16;;;;;;;34.03;16.00;;;;;;;;;;4958043;28;20093;-62
2022/02/01 02:56:46;;;;;;;27.73;13.87;;;;;;;;;;4955982;28;20400;-62
2022/02/01 02:59:12;;;;;;;31.07;16.40;;;;;;;;;;4957115;28;20023;-62
2022/02/01 03:01:39;;;;;;;30.47;15.37;;;;;;;;;;4957034;28;20054;-63
2022/02/01 03:04:04;;;;;;;33.30;15.53;;;;;;;;;;4957955;28;20343;-63
2022/02/01 03:06:29;;;;;;;31.40;13.67;;;;;;;;;;4956305;28;20031;-63
2022/02/01 03:08:54;;;;;;;28.40;14.80;;;;;;;;;;4956691;28;20472;-62
2022/02/01 03:11:19;;;;;;;30.73;14.63;;;;;;;;;;4956865;28;20039;-63
2022/02/01 03:13:51;;;;;;;35.57;14.00;;;;;;;;;;4956025;28;20023;-61
2022/02/01 03:21:30;;;;;;;25.63;11.60;;;;;;;;;;4953497;28;20049;-63
2022/02/01 03:23:55;;;;;;;26.40;11.83;;;;;;;;;;4956364;29;20481;-62
2022/02/01 03:26:21;;;;;;;24.90;12.60;;;;;;;;;;4950407;28;20058;-61
2022/02/01 03:28:46;;;;;;;21.80;12.10;;;;;;;;;;4941019;29;20469;-61
2022/02/01 03:31:11;;;;;;;18.97;11.33;;;;;;;;;;4956392;28;20229;-61
2022/02/01 03:33:36;;;;;;;21.50;11.13;;;;;;;;;;4956177;28;20074;-62
2022/02/01 03:36:01;;;;;;;21.93;11.53;;;;;;;;;;4956529;28;20412;-61
2022/02/01 03:38:27;;;;;;;16.73;10.10;;;;;;;;;;4955043;29;20027;-62
2022/02/01 03:40:52;;;;;;;17.37;10.50;;;;;;;;;;4955998;28;20530;-63
2022/02/01 03:43:17;;;;;;;21.57;11.10;;;;;;;;;;4956261;28;20400;-62
2022/02/01 03:45:42;;;;;;;18.37;11.30;;;;;;;;;;4955808;28;20449;-62
2022/02/01 03:48:08;;;;;;;17.53;10.97;;;;;;;;;;4957254;28;20453;-62
2022/02/01 03:50:33;;;;;;;21.83;12.53;;;;;;;;;;4951601;28;20573;-61
2022/02/01 03:52:58;;;;;;;21.67;12.03;;;;;;;;;;4955305;29;20476;-62
2022/02/01 03:55:23;;;;;;;24.17;12.80;;;;;;;;;;4955701;29;20011;-62
2022/02/01 03:57:49;;;;;;;18.83;13.07;;;;;;;;;;4956578;28;20024;-62
2022/02/01 04:00:14;;;;;;;20.60;11.07;;;;;;;;;;4954895;28;20023;-64
2022/02/01 04:02:39;;;;;;;18.90;11.53;;;;;;;;;;4954820;29;20028;-63
2022/02/01 04:05:04;;;;;;;19.50;12.00;;;;;;;;;;4955272;28;20019;-63
2022/02/01 04:07:30;;;;;;;17.27;10.80;;;;;;;;;;4955438;28;20035;-63
2022/02/01 04:09:55;;;;;;;24.40;11.93;;;;;;;;;;4955859;29;20027;-61
2022/02/01 04:12:20;;;;;;;18.00;10.90;;;;;;;;;;4955531;29;20440;-62
2022/02/01 04:14:46;;;;;;;20.57;11.03;;;;;;;;;;4955813;28;20023;-62
2022/02/01 04:17:12;;;;;;;18.03;9.53;;;;;;;;;;4955394;28;20495;-61
2022/02/01 04:19:37;;;;;;;20.83;9.77;;;;;;;;;;4954725;28;20023;-61
2022/02/01 04:22:03;;;;;;;14.27;8.80;;;;;;;;;;4951215;28;20468;-60
2022/02/01 04:24:29;;;;;;;18.60;9.73;;;;;;;;;;4954615;28;20322;-61
2022/02/01 04:26:55;;;;;;;17.23;8.90;;;;;;;;;;4952423;28;20033;-61
2022/02/01 04:29:20;;;;;;;14.67;9.20;;;;;;;;;;4956129;28;20170;-61
2022/02/01 04:31:45;;;;;;;19.03;9.77;;;;;;;;;;4955371;29;20038;-61
2022/02/01 04:34:10;;;;;;;16.30;8.93;;;;;;;;;;4955163;28;20109;-63
2022/02/01 04:36:36;;;;;;;17.33;8.83;;;;;;;;;;4954580;28;20058;-61
2022/02/01 04:39:02;;;;;;;17.00;8.73;;;;;;;;;;4955008;28;20073;-63
2022/02/01 04:41:28;;;;;;;13.77;8.73;;;;;;;;;;4954948;29;20384;-61
2022/02/01 04:43:53;;;;;;;16.13;9.17;;;;;;;;;;4954303;28;20039;-62
2022/02/01 04:46:22;;;;;;;16.10;10.37;;;;;;;;;;4955257;28;20034;-61
2022/02/01 04:48:47;;;;;;;14.80;8.53;;;;;;;;;;4954228;28;20015;-62
2022/02/01 04:51:17;;;;;;;16.80;8.60;;;;;;;;;;4950305;28;20030;-61
2022/02/01 04:53:43;;;;;;;14.43;8.37;;;;;;;;;;4954066;28;20026;-60
2022/02/01 04:56:09;;;;;;;12.80;8.77;;;;;;;;;;4948342;29;20027;-62
2022/02/01 04:58:34;;;;;;;13.80;7.87;;;;;;;;;;4954689;28;20401;-62
2022/02/01 05:01:00;;;;;;;13.50;8.33;;;;;;;;;;4955471;28;20362;-62
2022/02/01 05:03:25;;;;;;;14.40;7.57;;;;;;;;;;4955258;28;20031;-62
2022/02/01 05:05:50;;;;;;;13.13;8.47;;;;;;;;;;4953811;28;20453;-62
2022/02/01 05:08:16;;;;;;;14.80;7.97;;;;;;;;;;4954858;28;20416;-62
2022/02/01 05:10:41;;;;;;;12.23;6.60;;;;;;;;;;4955463;28;20465;-62
2022/02/01 05:15:45;;;;;;;10.67;6.20;;;;;;;;;;4954097;28;20078;-62
2022/02/01 05:18:17;;;;;;;16.00;6.63;;;;;;;;;;4953307;28;20023;-63
2022/02/01 05:23:27;;;;;;;13.23;7.07;;;;;;;;;;4954041;28;20400;-62
2022/02/01 05:25:52;;;;;;;12.43;6.73;;;;;;;;;;4953459;28;20055;-62
2022/02/01 05:28:18;;;;;;;12.60;7.40;;;;;;;;;;4954334;28;20516;-61
2022/02/01 05:30:43;;;;;;;14.57;7.47;;;;;;;;;;4953042;28;20167;-62
2022/02/01 05:33:08;;;;;;;12.87;7.63;;;;;;;;;;4970158;28;20023;-62
2022/02/01 05:35:33;;;;;;;14.43;7.77;;;;;;;;;;4953294;28;20061;-62
2022/02/01 05:37:59;;;;;;;15.00;8.00;;;;;;;;;;4954001;28;20038;-61
2022/02/01 05:40:26;;;;;;;14.07;7.30;;;;;;;;;;4952717;29;20032;-60
2022/02/01 05:45:22;;;;;;;15.27;8.53;;;;;;;;;;4961745;28;20086;-59
2022/02/01 05:47:47;;;;;;;16.13;7.97;;;;;;;;;;4953672;29;20035;-63
2022/02/01 05:50:13;;;;;;;14.97;8.83;;;;;;;;;;4950968;28;20027;-62
2022/02/01 05:52:38;;;;;;;17.27;9.90;;;;;;;;;;4952289;28;20081;-63
2022/02/01 05:55:03;;;;;;;16.53;10.23;;;;;;;;;;4953013;28;20028;-63
2022/02/01 05:57:28;;;;;;;11.57;6.63;;;;;;;;;;4953535;28;20028;-62
2022/02/01 05:59:54;;;;;;;15.93;9.13;;;;;;;;;;4953434;28;20476;-63
2022/02/01 06:02:19;;;;;;;16.07;9.80;;;;;;;;;;4953089;28;20125;-61
2022/02/01 06:04:44;;;;;;;16.30;10.10;;;;;;;;;;4953273;28;20095;-62
2022/02/01 06:07:09;;;;;;;18.23;11.00;;;;;;;;;;4953051;28;20035;-62
2022/02/01 06:09:35;;;;;;;19.23;10.70;;;;;;;;;;4952462;29;20094;-62
2022/02/01 06:12:00;;;;;;;18.60;12.10;;;;;;;;;;4953304;28;20035;-63
2022/02/01 06:14:25;;;;;;;20.80;12.47;;;;;;;;;;4953624;28;20078;-59
2022/02/01 06:16:50;;;;;;;20.83;11.67;;;;;;;;;;4952617;28;20032;-62
2022/02/01 06:19:15;;;;;;;21.60;12.33;;;;;;;;;;4952461;28;20085;-63
2022/02/01 06:21:41;;;;;;;22.80;11.90;;;;;;;;;;4947277;28;20027;-61
2022/02/01 06:24:07;;;;;;;23.37;13.27;;;;;;;;;;4955153;28;20027;-61
2022/02/01 06:26:32;;;;;;;23.70;12.73;;;;;;;;;;4959316;28;20078;-61
2022/02/01 06:28:58;;;;;;;22.37;12.90;;;;;;;;;;4959372;28;20349;-62
2022/02/01 06:31:23;;;;;;;22.17;13.00;;;;;;;;;;4959807;28;20035;-62
2022/02/01 06:33:48;;;;;;;23.23;13.50;;;;;;;;;;4959821;28;20016;-61
2022/02/01 06:36:13;;;;;;;25.40;14.33;;;;;;;;;;4957924;28;20031;-62
2022/02/01 06:38:38;;;;;;;24.03;12.63;;;;;;;;;;4958469;29;20447;-62
2022/02/01 06:41:04;;;;;;;27.77;13.97;;;;;;;;;;4958857;29;20034;-61
2022/02/01 06:43:29;;;;;;;22.33;12.67;;;;;;;;;;4956118;28;20480;-61
2022/02/01 06:45:54;;;;;;;22.73;13.03;;;;;;;;;;4958610;28;20768;-63
2022/02/01 06:48:19;;;;;;;21.67;12.33;;;;;;;;;;4958905;29;20028;-61
2022/02/01 06:50:48;;;;;;;24.60;12.43;;;;;;;;;;4952936;28;20019;-61
2022/02/01 06:53:13;;;;;;;23.37;12.20;;;;;;;;;;4959101;29;20030;-63
2022/02/01 06:58:10;;;;;;;15.57;9.87;;;;;;;;;;4957473;28;20042;-62
2022/02/01 07:00:35;;;;;;;16.57;10.43;;;;;;;;;;4958745;28;20031;-62
2022/02/01 07:03:00;;;;;;;14.80;9.87;;;;;;;;;;4959383;28;20090;-62
2022/02/01 07:05:26;;;;;;;14.87;9.13;;;;;;;;;;4959645;28;22085;-61
2022/02/01 07:07:51;;;;;;;13.03;9.10;;;;;;;;;;4958735;28;20019;-62
2022/02/01 07:10:17;;;;;;;14.53;7.63;;;;;;;;;;4958892;29;20098;-61
2022/02/01 07:12:43;;;;;;;17.77;8.77;;;;;;;;;;4958653;28;20507;-62
2022/02/01 07:15:08;;;;;;;15.17;8.77;;;;;;;;;;4962864;28;20073;-62
2022/02/01 07:18:03;;;;;;;17.50;9.80;;;;;;;;;;4959198;28;20031;-62
2022/02/01 07:20:31;;;;;;;17.57;10.30;;;;;;;;;;4950244;28;20045;-62
2022/02/01 07:22:56;;;;;;;19.30;9.13;;;;;;;;;;4958100;29;20349;-62
2022/02/01 07:25:33;;;;;;;14.70;9.13;;;;;;;;;;4962600;28;20075;-61
2022/02/01 07:28:02;;;;;;;14.50;8.40;;;;;;;;;;4960306;28;20074;-61
2022/02/01 07:30:27;;;;;;;18.67;9.80;;;;;;;;;;4959257;28;20388;-60
2022/02/01 07:32:53;;;;;;;15.83;8.33;;;;;;;;;;4959579;28;20019;-62
2022/02/01 07:35:20;;;;;;;14.73;8.23;;;;;;;;;;4957495;28;20027;-62
2022/02/01 07:37:45;;;;;;;18.37;9.23;;;;;;;;;;4963730;28;20030;-61
2022/02/01 07:40:11;;;;;;;26.37;9.33;;;;;;;;;;4956327;29;20027;-62
2022/02/01 07:42:36;;;;;;;17.87;8.53;;;;;;;;;;4956327;28;20345;-62
2022/02/01 07:45:03;;;;;;;18.27;7.63;;;;;;;;;;4955800;28;20043;-62
2022/02/01 07:47:28;;;;;;;14.57;7.40;;;;;;;;;;4963419;28;20537;-61
2022/02/01 07:49:54;;;;;;;13.43;7.20;;;;;;;;;;4954891;28;20031;-61
2022/02/01 07:52:19;;;;;;;12.13;7.37;;;;;;;;;;4951097;28;20027;-63
2022/02/01 07:54:45;;;;;;;14.50;8.20;;;;;;;;;;4955732;28;20023;-60
2022/02/01 07:57:10;;;;;;;12.03;6.67;;;;;;;;;;4963569;28;20041;-62
2022/02/01 07:59:36;;;;;;;11.83;6.50;;;;;;;;;;4957540;28;20020;-61
2022/02/01 08:02:03;;;;;;;12.87;6.63;;;;;;;;;;4956187;28;20023;-61
2022/02/01 08:04:32;;;;;;;12.97;6.30;;;;;;;;;;4955690;28;20103;-63
2022/02/01 08:06:58;;;;;;;11.97;6.23;;;;;;;;;;4955031;29;20027;-62
2022/02/01 08:09:28;;;;;;;9.73;5.60;;;;;;;;;;4953121;28;20290;-62
2022/02/01 08:11:54;;;;;;;13.60;5.33;;;;;;;;;;4955713;29;20035;-62
2022/02/01 08:22:09;;;;;;;11.07;4.30;;;;;;;;;;4951261;29;20115;-61
2022/02/01 08:24:34;;;;;;;8.83;3.87;;;;;;;;;;4954543;28;20090;-61
2022/02/01 08:26:59;;;;;;;8.90;3.67;;;;;;;;;;4954760;29;20126;-60
2022/02/01 08:29:25;;;;;;;9.97;3.87;;;;;;;;;;4954503;28;20440;-63
2022/02/01 08:31:51;;;;;;;8.30;3.53;;;;;;;;;;4955305;28;20075;-61
2022/02/01 08:34:17;;;;;;;13.23;3.60;;;;;;;;;;4955377;29;20058;-61
2022/02/01 08:36:42;;;;;;;8.03;3.17;;;;;;;;;;4954305;29;20244;-61
2022/02/01 08:39:07;;;;;;;11.00;2.93;;;;;;;;;;4954558;28;20043;-61
2022/02/01 08:41:33;;;;;;;12.30;4.23;;;;;;;;;;4953802;28;20100;-62
2022/02/01 08:43:59;;;;;;;6.33;1.93;;;;;;;;;;4954897;29;20473;-62
2022/02/01 08:46:24;;;;;;;9.93;2.17;;;;;;;;;;4954037;28;20038;-61
2022/02/01 08:48:49;;;;;;;9.03;2.73;;;;;;;;;;4954154;28;20429;-61
2022/02/01 08:51:17;;;;;;;7.13;2.13;;;;;;;;;;4952020;28;20054;-62
2022/02/01 08:53:47;;;;;;;18.47;2.33;;;;;;;;;;4953539;29;20031;-63
2022/02/01 08:57:21;;;;;;;8.90;2.23;;;;;;;;;;4954370;28;20028;-64
2022/02/01 08:58:58;;;;;;;10.67;2.40;;;;;;;;;;4953953;28;20039;-61
2022/02/01 09:01:23;;;;;;;11.43;1.80;;;;;;;;;;4960528;28;20022;-62
2022/02/01 09:03:49;;;;;;;14.20;2.07;;;;;;;;;;4954331;28;20330;-61
2022/02/01 09:06:14;;;;;;;11.57;1.57;;;;;;;;;;4954092;29;20028;-62
2022/02/01 09:08:39;;;;;;;12.83;2.17;;;;;;;;;;4952544;29;20022;-60
2022/02/01 09:11:04;;;;;;;9.43;1.80;;;;;;;;;;4959705;28;20041;-60
2022/02/01 09:13:30;;;;;;;13.20;2.17;;;;;;;;;;4955343;28;20015;-62
2022/02/01 09:15:55;;;;;;;14.60;2.20;;;;;;;;;;4954012;28;20476;-62
2022/02/01 09:18:20;;;;;;;8.37;1.37;;;;;;;;;;4952208;29;20031;-61
2022/02/01 09:20:46;;;;;;;10.33;2.07;;;;;;;;;;4954023;28;20535;-61
2022/02/01 09:23:11;;;;;;;18.57;2.70;;;;;;;;;;4961882;28;20479;-60
2022/02/01 09:25:37;;;;;;;11.57;2.27;;;;;;;;;;4955476;28;20079;-61
2022/02/01 09:28:03;;;;;;;9.93;2.13;;;;;;;;;;4954103;28;20456;-63
2022/02/01 09:30:28;;;;;;;8.13;1.53;;;;;;;;;;4955842;28;20070;-61
2022/02/01 09:32:53;;;;;;;12.23;2.03;;;;;;;;;;4953991;28;20027;-62
2022/02/01 09:35:18;;;;;;;17.80;2.47;;;;;;;;;;4952488;28;20038;-62
2022/02/01 09:37:43;;;;;;;13.57;1.77;;;;;;;;;;4955468;28;20444;-61
2022/02/01 09:40:09;;;;;;;10.73;2.40;;;;;;;;;;4953679;28;20356;-61
2022/02/01 09:42:38;;;;;;;10.10;1.87;;;;;;;;;;4953938;28;20031;-62
2022/02/01 09:45:04;;;;;;;11.07;1.80;;;;;;;;;;4953573;28;20027;-63
2022/02/01 09:47:30;;;;;;;10.67;1.60;;;;;;;;;;4951677;29;20034;-62
2022/02/01 09:49:55;;;;;;;7.90;1.53;;;;;;;;;;4950995;29;20027;-59
2022/02/01 09:52:22;;;;;;;9.60;1.63;;;;;;;;;;4947099;28;20019;-62
2022/02/01 09:54:51;;;;;;;8.63;1.53;;;;;;;;;;4953468;28;20023;-61
2022/02/01 09:57:17;;;;;;;11.33;1.33;;;;;;;;;;4952522;29;20022;-61
2022/02/01 09:59:51;;;;;;;19.63;3.40;;;;;;;;;;4952525;28;20031;-62
2022/02/01 10:02:17;;;;;;;9.40;1.58;;;;;;;;;;4955195;28;20523;-61
2022/02/01 10:04:43;;;;;;;7.97;1.00;;;;;;;;;;4952712;28;20150;-61
2022/02/01 10:07:10;;;;;;;11.17;1.30;;;;;;;;;;4953139;28;20038;-63
2022/02/01 10:09:47;;;;;;;12.17;1.87;;;;;;;;;;4952248;28;20031;-62
2022/02/01 10:12:17;;;;;;;10.20;1.50;;;;;;;;;;4953555;29;20027;-62
2022/02/01 10:14:51;;;;;;;11.37;1.67;;;;;;;;;;4954146;28;20388;-61
2022/02/01 10:17:24;;;;;;;9.53;1.67;;;;;;;;;;4952516;29;20031;-61
2022/02/01 10:19:49;;;;;;;8.60;1.87;;;;;;;;;;4952370;29;20039;-62
2022/02/01 10:22:14;;;;;;;9.07;1.53;;;;;;;;;;4951400;28;20032;-63
2022/02/01 10:24:41;;;;;;;11.60;2.33;;;;;;;;;;4953414;28;20388;-63
2022/02/01 10:27:18;;;;;;;12.67;2.13;;;;;;;;;;4952072;28;20027;-58
2022/02/01 10:32:54;;;;;;;14.13;2.57;;;;;;;;;;4950765;29;20561;-63
2022/02/01 10:38:05;;;;;;;9.03;2.03;;;;;;;;;;4952570;29;20532;-61
2022/02/01 10:40:42;;;;;;;15.40;2.10;;;;;;;;;;4952129;28;20027;-61
2022/02/01 10:43:29;;;;;;;9.53;1.80;;;;;;;;;;4948860;29;20023;-61
2022/02/01 10:46:03;;;;;;;13.77;2.00;;;;;;;;;;4950683;28;20035;-62
2022/02/01 10:48:28;;;;;;;9.60;2.03;;;;;;;;;;4967246;28;20119;-63
2022/02/01 10:51:20;;;;;;;9.37;1.80;;;;;;;;;;4949447;28;20488;-61
2022/02/01 10:53:45;;;;;;;10.83;1.50;;;;;;;;;;4950745;28;20094;-61
2022/02/01 10:56:12;;;;;;;10.43;1.20;;;;;;;;;;4952695;28;20027;-61
2022/02/01 10:58:37;;;;;;;8.33;1.53;;;;;;;;;;4951675;28;20488;-61
2022/02/01 11:01:03;;;;;;;10.83;1.50;;;;;;;;;;4951512;29;20145;-61
2022/02/01 11:03:29;;;;;;;10.93;1.27;;;;;;;;;;4953163;28;20444;-61
2022/02/01 11:05:55;;;;;;;11.20;1.73;;;;;;;;;;4952454;28;20121;-59
2022/02/01 11:08:29;;;;;;;8.90;1.70;;;;;;;;;;4952636;28;20094;-62
2022/02/01 11:10:55;;;;;;;10.60;1.27;;;;;;;;;;4954090;28;20038;-61
2022/02/01 11:13:21;;;;;;;7.20;0.80;;;;;;;;;;4955363;28;20031;-64
2022/02/01 11:15:55;;;;;;;13.07;1.10;;;;;;;;;;4956547;29;21700;-62
2022/02/01 11:18:25;;;;;;;9.57;1.85;;;;;;;;;;4954376;28;20027;-62
2022/02/01 11:20:51;;;;;;;10.30;1.15;;;;;;;;;;4950304;28;20049;-62
2022/02/01 11:23:21;;;;;;;4.73;0.77;;;;;;;;;;4956093;28;20011;-60
2022/02/01 11:25:50;;;;;;;10.60;1.17;;;;;;;;;;4951867;28;20047;-59
2022/02/01 11:28:38;;;;;;;11.03;1.30;;;;;;;;;;4970464;28;20058;-61
2022/02/01 11:31:04;;;;;;;5.87;0.77;;;;;;;;;;4955550;29;20102;-61
2022/02/01 11:33:43;;;;;;;7.93;0.87;;;;;;;;;;4956258;28;20498;-61
2022/02/01 11:36:09;;;;;;;4.43;0.70;;;;;;;;;;4953565;29;20023;-60
2022/02/01 11:38:34;;;;;;;5.97;0.77;;;;;;;;;;4954186;29;20090;-62
2022/02/01 11:41:02;;;;;;;4.82;0.38;;;;;;;;;;4953589;29;20452;-61
2022/02/01 11:43:27;;;;;;;5.15;0.50;;;;;;;;;;4953375;29;20016;-62
2022/02/01 11:45:54;;;;;;;11.70;1.67;;;;;;;;;;4954216;28;20035;-61
2022/02/01 11:48:21;;;;;;;5.80;0.75;;;;;;;;;;4954959;28;20015;-63
2022/02/01 11:51:07;;;;;;;6.05;0.98;;;;;;;;;;4949220;28;20027;-63
2022/02/01 11:53:32;;;;;;;6.07;0.82;;;;;;;;;;4948692;29;20028;-62
2022/02/01 11:55:57;;;;;;;4.47;0.57;;;;;;;;;;4954320;28;20035;-61
2022/02/01 11:58:30;;;;;;;7.10;0.70;;;;;;;;;;4955011;28;20511;-64
2022/02/01 12:00:56;;;;;;;5.50;0.60;;;;;;;;;;4953088;29;20031;-62
2022/02/01 12:03:25;;;;;;;5.40;0.65;;;;;;;;;;4953317;28;20029;-62
2022/02/01 12:05:58;;;;;;;6.80;0.73;;;;;;;;;;4948793;29;20031;-62
2022/02/01 12:08:28;;;;;;;3.72;0.60;;;;;;;;;;4948706;29;20030;-60
2022/02/01 12:10:56;;;;;;;4.03;0.40;;;;;;;;;;4950237;28;20051;-62
2022/02/01 12:13:23;;;;;;;4.35;1.13;;;;;;;;;;4949937;28;20023;-61
2022/02/01 12:15:50;;;;;;;5.68;1.02;;;;;;;;;;4949325;29;20031;-61
2022/02/01 12:18:18;;;;;;;8.05;1.50;;;;;;;;;;4952067;28;20023;-62
2022/02/01 12:20:44;;;;;;;6.68;0.93;;;;;;;;;;4950601;28;20622;-63
2022/02/01 12:23:18;;;;;;;5.03;0.77;;;;;;;;;;4948678;28;20027;-60
2022/02/01 12:25:43;;;;;;;7.20;0.70;;;;;;;;;;4950278;28;20047;-60
2022/02/01 12:28:23;;;;;;;5.60;0.65;;;;;;;;;;4946692;28;20027;-61
2022/02/01 12:30:50;;;;;;;7.30;0.82;;;;;;;;;;4949621;28;20127;-61
2022/02/01 12:33:17;;;;;;;7.03;1.17;;;;;;;;;;4963062;28;20376;-61
2022/02/01 12:35:43;;;;;;;6.28;0.93;;;;;;;;;;4950072;28;20045;-60
2022/02/01 12:38:21;;;;;;;5.68;0.70;;;;;;;;;;4948806;28;20476;-61
2022/02/01 12:40:51;;;;;;;9.27;1.13;;;;;;;;;;4950066;29;20086;-58
2022/02/01 12:43:21;;;;;;;5.22;1.30;;;;;;;;;;4949086;28;20106;-56
2022/02/01 12:46:02;;;;;;;8.02;1.75;;;;;;;;;;4948225;28;20082;-58
2022/02/01 12:48:28;;;;;;;5.50;1.10;;;;;;;;;;4947514;29;20067;-61
2022/02/01 12:50:54;;;;;;;10.95;1.38;;;;;;;;;;4944513;28;20099;-63
2022/02/01 12:53:19;;;;;;;5.90;1.98;;;;;;;;;;4948195;28;20034;-62
2022/02/01 12:55:44;;;;;;;7.97;0.85;;;;;;;;;;4948552;28;20027;-63
2022/02/01 12:58:13;;;;;;;8.85;1.15;;;;;;;;;;4949607;28;20024;-62
2022/02/01 13:00:38;;;;;;;6.55;1.70;;;;;;;;;;4948728;28;20016;-63
2022/02/01 13:03:04;;;;;;;6.22;0.82;;;;;;;;;;4948846;28;20191;-62
2022/02/01 13:05:30;;;;;;;4.22;1.40;;;;;;;;;;4945041;28;20178;-63
2022/02/01 13:15:49;;;;;;;5.47;1.80;;;;;;;;;;4948837;28;20031;-62
2022/02/01 13:18:24;;;;;;;5.22;1.27;;;;;;;;;;4945645;28;20106;-61
2022/02/01 13:21:00;;;;;;;6.03;2.03;;;;;;;;;;4946500;28;20031;-63
2022/02/01 13:23:35;;;;;;;8.07;1.83;;;;;;;;;;4952835;29;20019;-64
2022/02/01 13:26:05;;;;;;;5.73;1.47;;;;;;;;;;4962337;28;20051;-64
2022/02/01 13:28:30;;;;;;;7.03;2.13;;;;;;;;;;4951057;28;20038;-63
2022/02/01 13:31:02;;;;;;;4.87;2.00;;;;;;;;;;4947493;29;20101;-64
2022/02/01 13:33:27;;;;;;;4.53;1.73;;;;;;;;;;4948221;28;20033;-64
2022/02/01 13:35:54;;;;;;;8.00;2.33;;;;;;;;;;4946268;29;20031;-64
2022/02/01 13:38:21;;;;;;;4.20;1.27;;;;;;;;;;4945303;28;20034;-63
2022/02/01 13:40:47;;;;;;;5.03;2.10;;;;;;;;;;4948517;28;20106;-66
2022/02/01 13:43:12;;;;;;;4.60;2.47;;;;;;;;;;4948544;29;20118;-64
2022/02/01 13:45:37;;;;;;;6.53;2.30;;;;;;;;;;4950047;28;20376;-62
2022/02/01 13:48:03;;;;;;;7.40;2.50;;;;;;;;;;4953115;29;20041;-66
2022/02/01 13:50:28;;;;;;;4.93;2.20;;;;;;;;;;4938505;28;20030;-65
2022/02/01 13:52:56;;;;;;;5.70;2.30;;;;;;;;;;4949751;28;20111;-68
2022/02/01 13:55:24;;;;;;;7.80;2.43;;;;;;;;;;4953192;29;20046;-68
2022/02/01 13:57:52;;;;;;;5.40;2.03;;;;;;;;;;4953356;28;20042;-67
2022/02/01 14:00:17;;;;;;;4.13;1.40;;;;;;;;;;4963940;28;20035;-68
2022/02/01 14:02:50;;;;;;;4.77;2.30;;;;;;;;;;4954654;28;20042;-69
2022/02/01 14:05:24;;;;;;;3.97;1.47;;;;;;;;;;4951482;29;20035;-68
2022/02/01 14:11:50;;;;;;;5.33;1.53;;;;;;;;;;4932018;29;20311;-68
2022/02/01 14:13:59;;;;;;;;;;;;;;;;;;4945592;29;20045;-69
2022/02/01 14:22:24;;;;;;;6.47;2.33;;;;;;;;;;4947264;28;19910;-69
2022/02/01 14:33:09;;;;;;;4.00;1.20;;;;;;;;;;4912023;29;20033;-69
2022/02/01 14:35:15;;;;;;;4.05;1.63;;;;;;;;;;4912500;29;20404;-67
2022/02/01 14:37:48;;;;;;;4.03;0.87;;;;;;;;;;4912240;29;20059;-68
2022/02/01 14:45:41;;;;;;;2.73;0.70;;;;;;;;;;4908456;29;20546;-68
2022/02/01 14:48:07;;;;;;;3.23;0.70;;;;;;;;;;4916064;29;20028;-68
2022/02/01 14:50:32;;;;;;;4.07;0.80;;;;;;;;;;4911387;29;20080;-68
2022/02/01 14:52:57;;;;;;;1.77;0.70;;;;;;;;;;4897617;29;20164;-68
2022/02/01 14:55:23;;;;;;;1.70;0.60;;;;;;;;;;4905920;29;20544;-67
2022/02/01 15:11:29;;;;;;;2.47;0.50;;;;;;;;;;4955771;28;20535;-68
2022/02/01 15:13:54;;;;;;;1.07;0.30;;;;;;;;;;4956220;29;20031;-68
2022/02/01 15:16:20;;;;;;;1.90;0.40;;;;;;;;;;4956428;29;20050;-67
2022/02/01 15:18:45;;;;;;;1.50;0.40;;;;;;;;;;4955759;28;20061;-69
2022/02/01 15:21:13;;;;;;;1.67;0.20;;;;;;;;;;4949056;28;20563;-67
2022/02/01 15:23:38;;;;;;;3.70;0.83;;;;;;;;;;4954170;28;20023;-68
2022/02/01 15:26:04;;;;;;;2.47;0.80;;;;;;;;;;4954353;29;20055;-67
2022/02/01 15:28:31;;;;;;;0.70;0.20;;;;;;;;;;4954532;29;20023;-68
2022/02/01 15:31:00;;;;;;;0.77;0.30;;;;;;;;;;4955190;28;20128;-67
2022/02/01 15:33:25;;;;;;;2.20;0.20;;;;;;;;;;4950825;28;20027;-67
2022/02/01 15:35:50;;;;;;;0.67;0.30;;;;;;;;;;4952844;29;20037;-68
2022/02/01 15:38:18;;;;;;;1.00;0.30;;;;;;;;;;4954412;28;20019;-68
2022/02/01 15:59:18;;;;;;;0.30;0.10;;;;;;;;;;4949724;29;20023;-66
2022/02/01 16:01:52;;;;;;;0.50;0.20;;;;;;;;;;4950965;29;20502;-65
2022/02/01 16:04:19;;;;;;;0.30;0.17;;;;;;;;;;4950744;29;20027;-65
2022/02/01 16:06:51;;;;;;;0.20;0.10;;;;;;;;;;4952898;29;20038;-66
2022/02/01 16:09:24;;;;;;;0.23;0.10;;;;;;;;;;4955044;29;20023;-65
2022/02/01 16:11:49;;;;;;;0.27;0.10;;;;;;;;;;4953807;29;20034;-64
2022/02/01 16:14:14;;;;;;;1.17;0.20;;;;;;;;;;4969644;28;20428;-64
2022/02/01 16:16:40;;;;;;;0.27;0.10;;;;;;;;;;4952260;29;20031;-65
2022/02/01 16:19:05;;;;;;;0.33;0.17;;;;;;;;;;4953869;29;20530;-64
2022/02/01 16:21:31;;;;;;;0.30;0.10;;;;;;;;;;4948704;28;20023;-66
2022/02/01 16:23:56;;;;;;;0.23;0.20;;;;;;;;;;4952932;28;20413;-66
2022/02/01 16:26:21;;;;;;;1.83;0.23;;;;;;;;;;4952707;28;20472;-68
2022/02/01 16:28:47;;;;;;;1.13;0.30;;;;;;;;;;4951448;29;20073;-66
2022/02/01 16:31:15;;;;;;;0.53;0.20;;;;;;;;;;4951006;28;20027;-68
2022/02/01 16:33:40;;;;;;;0.97;0.30;;;;;;;;;;4951999;29;20461;-68
2022/02/01 16:36:05;;;;;;;0.90;0.20;;;;;;;;;;4952512;28;20035;-68
2022/02/01 16:38:30;;;;;;;0.10;0.00;;;;;;;;;;4953757;28;20053;-67
2022/02/01 16:40:55;;;;;;;0.40;0.10;;;;;;;;;;4954051;28;20480;-68
2022/02/01 16:43:21;;;;;;;0.00;0.00;;;;;;;;;;4953182;28;20547;-66
2022/02/01 16:45:47;;;;;;;0.00;0.00;;;;;;;;;;4953017;29;20035;-65
2022/02/01 16:48:14;;;;;;;0.00;0.00;;;;;;;;;;4953263;29;20031;-68
2022/02/01 16:50:39;;;;;;;0.00;0.00;;;;;;;;;;4950351;29;20501;-67
2022/02/01 16:53:10;;;;;;;0.00;0.00;;;;;;;;;;4951190;28;20020;-65
2022/02/01 16:55:51;;;;;;;0.00;0.00;;;;;;;;;;4953459;28;20023;-67
2022/02/01 16:58:25;;;;;;;0.00;0.00;;;;;;;;;;4951043;28;20110;-67
2022/02/01 17:00:51;;;;;;;0.00;0.00;;;;;;;;;;4953579;28;20072;-63
2022/02/01 17:03:18;;;;;;;0.00;0.00;;;;;;;;;;4954126;29;20488;-66
2022/02/01 17:05:44;;;;;;;0.00;0.00;;;;;;;;;;4952583;29;20096;-67
2022/02/01 17:08:11;;;;;;;0.00;0.00;;;;;;;;;;4953275;28;20035;-67
2022/02/01 17:10:36;;;;;;;0.00;0.00;;;;;;;;;;4954355;29;20111;-66
2022/02/01 17:13:22;;;;;;;0.00;0.00;;;;;;;;;;4954387;28;20441;-67
2022/02/01 17:23:41;;;;;;;0.00;0.00;;;;;;;;;;4944403;29;20384;-67
2022/02/01 17:26:06;;;;;;;0.00;0.00;;;;;;;;;;4944755;29;20047;-65